Time;durP1;ratioP1;P1;durP2;ratioP2;P2;SDS_P1;SDS_P2;PMS_P1;PMS_P2;Temp;Humidity;BMP_temperature;BMP_pressure;BME280_temperature;BME280_humidity;BME280_pressure;Samples;Min_cycle;Max_cycle;Signal;HPM_P1;HPM_P2
2023/09/04 00:00:33;;;;;;;6.30;2.53;;;24.20;81.50;;;;;;5045443;28;20060;-55
2023/09/04 00:02:59;;;;;;;7.65;2.47;;;24.20;81.50;;;;;;5062967;28;20049;-56
2023/09/04 00:05:24;;;;;;;6.45;2.35;;;24.20;81.60;;;;;;5062953;28;20095;-55
2023/09/04 00:07:50;;;;;;;7.10;2.42;;;24.20;81.60;;;;;;5062007;28;20173;-55
2023/09/04 00:10:16;;;;;;;5.00;2.40;;;24.20;81.70;;;;;;5045474;28;20101;-56
2023/09/04 00:12:41;;;;;;;6.57;2.55;;;24.10;81.70;;;;;;5043778;28;20057;-55
2023/09/04 00:15:07;;;;;;;7.07;2.50;;;24.10;81.70;;;;;;5045497;28;20132;-55
2023/09/04 00:17:32;;;;;;;5.18;2.20;;;24.10;81.70;;;;;;5042739;28;20025;-55
2023/09/04 00:19:58;;;;;;;4.50;2.10;;;24.10;81.80;;;;;;5045421;28;20098;-55
2023/09/04 00:22:24;;;;;;;7.03;2.28;;;24.10;81.90;;;;;;5045383;28;20041;-55
2023/09/04 00:24:49;;;;;;;5.80;1.98;;;24.00;81.80;;;;;;5063562;28;20048;-55
2023/09/04 00:27:15;;;;;;;6.63;2.30;;;24.00;81.90;;;;;;5038142;28;20060;-55
2023/09/04 00:29:40;;;;;;;4.10;2.45;;;24.00;82.00;;;;;;5025750;28;20128;-55
2023/09/04 00:32:09;;;;;;;8.43;2.50;;;24.00;82.00;;;;;;5060320;28;20029;-56
2023/09/04 00:40:57;;;;;;;4.10;1.98;;;24.00;82.30;;;;;;710949;22;20466;-55
2023/09/04 00:43:23;;;;;;;8.18;2.13;;;23.90;82.20;;;;;;5087383;28;20056;-56
2023/09/04 00:45:48;;;;;;;5.97;1.92;;;23.80;82.30;;;;;;5089037;28;20094;-56
2023/09/04 00:48:14;;;;;;;9.73;2.30;;;23.80;82.30;;;;;;5089243;28;20056;-56
2023/09/04 00:50:42;;;;;;;4.50;2.03;;;23.80;82.30;;;;;;5054331;28;20036;-56
2023/09/04 00:53:09;;;;;;;6.45;2.20;;;23.80;82.40;;;;;;5071503;28;20082;-56
2023/09/04 00:58:17;;;;;;;8.80;2.35;;;23.70;82.40;;;;;;5271264;22;20486;-88
2023/09/04 01:00:43;;;;;;;4.25;1.95;;;23.80;82.70;;;;;;5052610;28;20104;-90
2023/09/04 01:03:09;;;;;;;3.47;1.92;;;23.70;82.50;;;;;;5044923;23;20049;-59
2023/09/04 01:05:35;;;;;;;4.15;1.80;;;23.70;82.40;;;;;;5048479;28;20035;-59
2023/09/04 01:08:00;;;;;;;10.00;2.10;;;23.70;82.60;;;;;;5066421;28;20044;-59
2023/09/04 01:10:30;;;;;;;4.10;2.08;;;23.70;82.60;;;;;;5065096;28;20112;-58
2023/09/04 01:13:01;;;;;;;3.13;1.70;;;23.70;82.60;;;;;;5048713;28;20104;-58
2023/09/04 01:15:27;;;;;;;4.20;1.80;;;23.60;82.50;;;;;;5048458;28;20044;-59
2023/09/04 01:17:52;;;;;;;2.65;1.90;;;23.60;82.50;;;;;;5048165;28;20041;-59
2023/09/04 01:20:22;;;;;;;4.00;2.00;;;23.60;82.60;;;;;;5048262;28;20037;-58
2023/09/04 01:22:48;;;;;;;4.93;1.70;;;23.50;82.60;;;;;;5064779;28;20087;-59
2023/09/04 01:25:15;;;;;;;3.35;2.10;;;23.50;82.70;;;;;;5066144;28;20041;-58
2023/09/04 01:27:41;;;;;;;6.05;1.80;;;23.50;82.80;;;;;;5048155;28;20041;-59
2023/09/04 01:30:10;;;;;;;5.22;1.85;;;23.50;82.90;;;;;;5031698;28;20057;-59
2023/09/04 01:32:51;;;;;;;3.83;1.90;;;23.50;82.90;;;;;;5048128;28;20045;-59
2023/09/04 01:35:16;;;;;;;4.10;2.00;;;23.40;82.90;;;;;;5064177;28;20033;-58
2023/09/04 01:37:42;;;;;;;2.63;1.70;;;23.40;82.90;;;;;;5066740;28;20521;-58
2023/09/04 01:40:08;;;;;;;2.88;1.70;;;23.40;83.10;;;;;;5032774;28;20469;-58
2023/09/04 01:42:36;;;;;;;4.80;1.73;;;23.40;83.20;;;;;;5065273;28;20045;-58
2023/09/04 01:45:02;;;;;;;2.45;1.70;;;23.40;83.20;;;;;;5066263;28;20155;-58
2023/09/04 01:47:30;;;;;;;3.75;1.85;;;23.30;83.10;;;;;;5065630;28;20067;-59
2023/09/04 01:49:55;;;;;;;6.00;1.70;;;23.30;83.10;;;;;;5064912;28;20040;-59
2023/09/04 01:52:21;;;;;;;3.53;1.90;;;23.30;83.10;;;;;;5064144;28;20481;-58
2023/09/04 01:58:08;;;;;;;2.83;1.73;;;23.30;83.20;;;;;;5065657;28;20032;-59
2023/09/04 02:00:34;;;;;;;4.70;2.00;;;23.30;83.30;;;;;;5065512;28;20041;-58
2023/09/04 02:02:59;;;;;;;5.03;1.65;;;23.30;83.30;;;;;;5065347;28;20098;-59
2023/09/04 02:05:25;;;;;;;5.10;1.60;;;23.20;83.30;;;;;;5047253;28;20377;-59
2023/09/04 02:07:50;;;;;;;3.47;1.73;;;23.20;83.40;;;;;;5047135;28;20033;-59
2023/09/04 02:10:16;;;;;;;2.28;1.38;;;23.20;83.40;;;;;;5065309;28;20152;-59
2023/09/04 02:12:41;;;;;;;4.00;1.80;;;23.20;83.50;;;;;;5063911;28;20045;-59
2023/09/04 02:15:07;;;;;;;3.35;1.58;;;23.10;83.50;;;;;;5047213;28;20095;-59
2023/09/04 02:17:33;;;;;;;2.20;1.30;;;23.10;83.50;;;;;;5063614;28;20110;-58
2023/09/04 02:20:02;;;;;;;3.92;1.60;;;23.10;83.50;;;;;;5064955;28;20036;-59
2023/09/04 02:22:28;;;;;;;3.90;1.40;;;23.10;83.50;;;;;;5065163;28;20037;-59
2023/09/04 02:24:53;;;;;;;5.90;1.50;;;23.10;83.50;;;;;;5063542;28;20366;-59
2023/09/04 02:27:19;;;;;;;2.13;1.40;;;23.10;83.60;;;;;;5064840;28;20052;-59
2023/09/04 02:29:44;;;;;;;3.00;1.50;;;23.00;83.50;;;;;;5063474;28;20059;-59
2023/09/04 02:32:10;;;;;;;3.03;1.40;;;23.00;83.60;;;;;;5063453;28;20033;-59
2023/09/04 02:34:35;;;;;;;2.83;1.40;;;23.00;83.60;;;;;;5064632;28;20120;-59
2023/09/04 02:37:01;;;;;;;1.40;1.23;;;23.00;83.70;;;;;;5064727;28;20033;-59
2023/09/04 02:39:26;;;;;;;3.15;1.48;;;22.90;83.60;;;;;;5064622;28;20037;-59
2023/09/04 02:41:52;;;;;;;2.00;1.50;;;22.90;83.70;;;;;;5046536;28;20047;-59
2023/09/04 02:44:17;;;;;;;2.97;1.60;;;22.90;83.80;;;;;;5063137;28;20099;-59
2023/09/04 02:53:28;;;;;;;2.53;1.42;;;22.80;84.00;;;;;;5084527;28;20134;-59
2023/09/04 02:55:54;;;;;;;3.83;1.60;;;22.80;84.00;;;;;;5084542;28;20049;-59
2023/09/04 02:58:21;;;;;;;2.58;1.25;;;22.80;83.90;;;;;;5084076;28;20036;-59
2023/09/04 03:00:47;;;;;;;3.33;1.25;;;22.80;84.00;;;;;;5065451;28;20096;-58
2023/09/04 03:06:47;;;;;;;3.72;1.52;;;22.70;84.10;;;;;;5084069;28;20043;-58
2023/09/04 03:09:15;;;;;;;2.17;1.63;;;22.70;84.20;;;;;;5066186;28;20036;-59
2023/09/04 03:11:41;;;;;;;3.22;1.65;;;22.70;84.20;;;;;;5066382;28;20029;-58
2023/09/04 03:14:06;;;;;;;3.05;1.20;;;22.60;84.30;;;;;;5056254;28;20075;-59
2023/09/04 03:16:32;;;;;;;2.05;1.45;;;22.60;84.30;;;;;;5045907;28;20036;-59
2023/09/04 03:18:57;;;;;;;5.78;1.85;;;22.60;84.40;;;;;;5046113;28;20069;-58
2023/09/04 03:21:23;;;;;;;3.42;1.30;;;22.60;84.50;;;;;;5045994;28;20037;-59
2023/09/04 03:23:51;;;;;;;2.38;1.27;;;22.60;84.60;;;;;;5045924;28;20029;-59
2023/09/04 03:26:16;;;;;;;1.88;1.40;;;22.60;84.50;;;;;;5045385;28;20535;-59
2023/09/04 03:28:42;;;;;;;1.45;1.20;;;22.60;84.60;;;;;;5045906;28;20041;-58
2023/09/04 03:31:14;;;;;;;1.92;1.30;;;22.60;84.60;;;;;;5045683;28;20110;-58
2023/09/04 03:33:40;;;;;;;2.35;1.30;;;22.50;84.50;;;;;;5045617;28;20531;-59
2023/09/04 03:36:05;;;;;;;2.53;1.38;;;22.50;84.50;;;;;;5060782;28;20032;-59
2023/09/04 03:38:31;;;;;;;2.63;1.35;;;22.50;84.50;;;;;;5082498;28;20036;-57
2023/09/04 03:40:56;;;;;;;2.05;1.30;;;22.50;84.60;;;;;;5065658;28;20052;-59
2023/09/04 03:43:22;;;;;;;2.75;1.40;;;22.50;84.70;;;;;;5049413;28;20045;-59
2023/09/04 03:45:48;;;;;;;1.23;1.10;;;22.50;84.70;;;;;;5061452;28;20040;-59
2023/09/04 03:48:13;;;;;;;2.42;1.15;;;22.50;84.80;;;;;;5065660;28;20047;-58
2023/09/04 03:50:39;;;;;;;2.30;1.38;;;22.50;84.70;;;;;;5083617;28;20163;-59
2023/09/04 03:53:04;;;;;;;1.83;1.10;;;22.40;84.70;;;;;;5081910;28;20055;-59
2023/09/04 03:55:30;;;;;;;4.15;1.35;;;22.40;84.80;;;;;;5065706;28;20066;-59
2023/09/04 03:57:56;;;;;;;2.38;1.55;;;22.40;84.90;;;;;;5065897;28;20112;-59
2023/09/04 04:00:22;;;;;;;4.10;1.50;;;22.40;84.90;;;;;;5083775;28;20028;-59
2023/09/04 04:02:48;;;;;;;2.47;1.30;;;22.40;84.90;;;;;;5064463;28;20100;-59
2023/09/04 04:05:14;;;;;;;4.13;1.27;;;22.40;85.00;;;;;;5065491;28;20037;-59
2023/09/04 04:07:40;;;;;;;2.13;1.10;;;22.30;84.90;;;;;;5063456;28;20048;-59
2023/09/04 04:10:06;;;;;;;3.83;1.40;;;22.30;84.90;;;;;;5065341;28;20170;-59
2023/09/04 04:12:32;;;;;;;4.10;1.60;;;22.30;85.00;;;;;;5085082;28;20037;-59
2023/09/04 04:14:58;;;;;;;3.60;1.50;;;22.30;85.00;;;;;;5052595;28;20033;-59
2023/09/04 04:17:26;;;;;;;1.70;1.33;;;22.30;85.00;;;;;;5051314;28;20037;-59
2023/09/04 04:19:53;;;;;;;2.38;1.08;;;22.30;85.00;;;;;;5069376;28;20040;-59
2023/09/04 04:22:22;;;;;;;2.28;1.30;;;22.30;85.10;;;;;;5069429;28;20052;-59
2023/09/04 04:24:48;;;;;;;1.58;1.10;;;22.20;85.20;;;;;;5052154;28;20036;-58
2023/09/04 04:27:15;;;;;;;3.22;1.20;;;22.20;85.20;;;;;;5087214;28;20090;-58
2023/09/04 04:29:41;;;;;;;2.20;1.40;;;22.20;85.30;;;;;;5052462;28;20052;-60
2023/09/04 04:32:07;;;;;;;2.90;1.50;;;22.20;85.30;;;;;;5068040;28;20114;-59
2023/09/04 04:34:32;;;;;;;3.58;1.65;;;22.20;85.30;;;;;;5086462;28;20029;-59
2023/09/04 04:36:59;;;;;;;4.25;1.30;;;22.10;85.40;;;;;;5067790;28;20116;-59
2023/09/04 04:39:25;;;;;;;2.28;1.30;;;22.20;85.40;;;;;;5085416;28;20116;-58
2023/09/04 04:41:51;;;;;;;2.00;1.23;;;22.10;85.30;;;;;;5050781;28;20052;-59
2023/09/04 04:44:16;;;;;;;2.00;1.33;;;22.10;85.40;;;;;;5052365;28;20040;-59
2023/09/04 04:46:42;;;;;;;1.85;1.20;;;22.10;85.40;;;;;;5067012;28;20039;-59
2023/09/04 04:49:07;;;;;;;3.83;1.40;;;22.10;85.50;;;;;;5068569;28;20035;-58
2023/09/04 04:51:33;;;;;;;1.83;1.17;;;22.00;85.40;;;;;;5050034;28;20067;-58
2023/09/04 04:53:58;;;;;;;3.88;1.30;;;22.00;85.50;;;;;;5048682;28;20095;-59
2023/09/04 04:56:24;;;;;;;2.63;1.23;;;22.00;85.50;;;;;;5065055;28;20036;-59
2023/09/04 04:58:50;;;;;;;4.32;1.35;;;22.00;85.50;;;;;;5048550;28;20040;-59
2023/09/04 05:01:15;;;;;;;1.65;1.25;;;22.00;85.60;;;;;;5054605;28;20047;-55
2023/09/04 05:03:41;;;;;;;3.20;1.40;;;22.00;85.70;;;;;;5086708;28;20063;-55
2023/09/04 05:06:07;;;;;;;3.13;1.60;;;22.00;85.70;;;;;;5067302;28;20031;-54
2023/09/04 05:08:33;;;;;;;1.98;1.30;;;21.90;85.60;;;;;;5068273;28;20107;-55
2023/09/04 05:11:05;;;;;;;1.90;1.42;;;21.90;85.70;;;;;;5065965;28;20048;-55
2023/09/04 05:13:31;;;;;;;3.05;1.33;;;21.90;85.80;;;;;;5068832;28;20048;-55
2023/09/04 05:16:02;;;;;;;2.38;1.40;;;21.90;85.90;;;;;;5068339;28;20445;-55
2023/09/04 05:18:30;;;;;;;1.40;1.30;;;21.90;85.90;;;;;;5085095;28;20129;-54
2023/09/04 05:20:56;;;;;;;1.20;1.08;;;21.90;85.90;;;;;;5086085;28;20093;-55
2023/09/04 05:23:22;;;;;;;3.33;1.50;;;21.80;86.00;;;;;;5066130;28;20041;-55
2023/09/04 05:25:51;;;;;;;2.17;1.45;;;21.90;86.00;;;;;;5066826;28;20722;-55
2023/09/04 05:28:16;;;;;;;4.38;1.40;;;21.80;85.90;;;;;;5067761;28;20044;-55
2023/09/04 05:30:43;;;;;;;6.18;1.52;;;21.80;86.00;;;;;;5065676;28;20056;-55
2023/09/04 05:33:09;;;;;;;2.28;1.20;;;21.80;86.10;;;;;;5049597;28;20101;-55
2023/09/04 05:35:34;;;;;;;2.22;1.42;;;21.80;86.10;;;;;;5050781;28;20032;-55
2023/09/04 05:41:22;;;;;;;3.08;1.30;;;21.80;86.10;;;;;;5086079;28;20082;-55
2023/09/04 05:56:32;;;;;;;3.05;1.30;;;21.70;86.20;;;;;;5063369;28;20180;-58
2023/09/04 05:58:57;;;;;;;2.35;1.50;;;21.70;86.30;;;;;;5047517;28;20056;-59
2023/09/04 06:14:54;;;;;;;10.55;2.15;;;21.60;86.80;;;;;;5065332;28;20389;-61
2023/09/04 06:17:19;;;;;;;5.78;2.00;;;21.60;87.00;;;;;;5065642;28;20029;-61
2023/09/04 06:19:45;;;;;;;4.53;2.00;;;21.60;87.10;;;;;;5065609;28;20108;-61
2023/09/04 06:22:10;;;;;;;5.93;1.98;;;21.60;87.40;;;;;;5046994;28;20025;-61
2023/09/04 06:24:58;;;;;;;5.65;1.80;;;21.60;87.20;;;;;;5046858;28;20484;-60
2023/09/04 06:27:23;;;;;;;5.32;1.58;;;21.60;87.20;;;;;;5040689;28;20065;-60
2023/09/04 06:33:11;;;;;;;9.38;2.10;;;21.60;87.40;;;;;;5063715;28;20071;-60
2023/09/04 06:35:37;;;;;;;14.32;2.85;;;21.60;87.50;;;;;;5062702;28;20160;-61
2023/09/04 06:43:59;;;;;;;14.27;2.92;;;21.60;88.10;;;;;;5055492;22;20054;-60
2023/09/04 06:46:25;;;;;;;20.60;2.75;;;21.60;88.40;;;;;;5043541;28;20037;-60
2023/09/04 06:48:50;;;;;;;12.95;2.55;;;21.60;88.60;;;;;;5027059;28;20041;-60
2023/09/04 06:51:16;;;;;;;12.70;3.15;;;21.60;89.00;;;;;;5026909;28;20149;-59
2023/09/04 06:53:42;;;;;;;9.23;2.13;;;21.60;89.10;;;;;;5027146;28;20038;-60
2023/09/04 06:56:20;;;;;;;10.43;2.53;;;21.60;88.70;;;;;;5043198;28;20033;-60
2023/09/04 06:58:45;;;;;;;19.23;3.65;;;21.60;88.70;;;;;;5043450;28;20057;-60
2023/09/04 07:01:11;;;;;;;23.25;3.92;;;21.60;88.90;;;;;;5044168;28;20044;-60
2023/09/04 07:03:47;;;;;;;30.63;4.20;;;21.60;89.10;;;;;;5042463;28;20045;-60
2023/09/04 07:06:13;;;;;;;16.48;3.28;;;21.60;89.20;;;;;;5026013;28;20049;-60
2023/09/04 07:08:38;;;;;;;16.38;3.50;;;21.60;89.10;;;;;;5025902;28;20041;-60
2023/09/04 07:11:04;;;;;;;26.20;3.35;;;21.60;89.20;;;;;;5041674;28;20470;-59
2023/09/04 07:13:29;;;;;;;92.25;10.45;;;21.60;89.40;;;;;;5042730;28;20025;-60
2023/09/04 07:15:55;;;;;;;96.15;12.18;;;21.70;89.50;;;;;;5043462;28;20037;-60
2023/09/04 07:18:20;;;;;;;22.40;3.83;;;21.70;89.70;;;;;;5041580;28;20030;-60
2023/09/04 07:27:00;;;;;;;33.50;4.38;;;21.70;89.60;;;;;;5048787;28;20032;-51
2023/09/04 07:32:48;;;;;;;14.98;3.38;;;21.70;89.70;;;;;;5045829;28;20048;-53
2023/09/04 07:35:13;;;;;;;14.52;3.53;;;21.70;89.90;;;;;;5045888;28;20041;-53
2023/09/04 07:37:39;;;;;;;18.77;3.35;;;21.60;90.00;;;;;;5028419;28;20037;-53
2023/09/04 07:40:05;;;;;;;23.05;3.38;;;21.70;90.20;;;;;;5011937;28;20397;-53
2023/09/04 07:42:31;;;;;;;22.85;3.75;;;21.60;90.30;;;;;;5028579;28;20038;-53
2023/09/04 07:44:56;;;;;;;23.33;3.33;;;21.60;90.30;;;;;;5028176;28;20091;-51
2023/09/04 07:49:55;;;;;;;19.67;3.70;;;21.60;90.50;;;;;;5063073;28;20053;-56
2023/09/04 07:55:43;;;;;;;22.25;3.50;;;21.50;90.60;;;;;;5065861;28;20075;-57
2023/09/04 07:58:09;;;;;;;37.85;5.07;;;21.50;90.70;;;;;;5065424;28;20041;-58
2023/09/04 08:00:36;;;;;;;19.58;3.72;;;21.50;90.70;;;;;;5047840;28;20036;-57
2023/09/04 08:03:02;;;;;;;26.33;3.92;;;21.60;90.70;;;;;;5065663;28;20037;-57
2023/09/04 08:05:27;;;;;;;27.38;4.13;;;21.60;90.70;;;;;;5065863;28;20057;-58
2023/09/04 08:07:53;;;;;;;28.63;4.30;;;21.60;90.80;;;;;;5065881;28;20048;-57
2023/09/04 08:10:22;;;;;;;18.65;3.95;;;21.60;90.80;;;;;;5047191;28;20040;-57
2023/09/04 08:12:48;;;;;;;27.55;4.45;;;21.60;90.70;;;;;;5048246;28;20045;-57
2023/09/04 08:15:13;;;;;;;28.00;4.43;;;21.70;90.70;;;;;;5066491;28;20034;-56
2023/09/04 08:17:41;;;;;;;15.80;3.85;;;21.70;90.70;;;;;;5047895;28;20041;-57
2023/09/04 08:20:07;;;;;;;17.77;3.78;;;21.60;90.50;;;;;;5048036;28;20025;-56
2023/09/04 08:22:33;;;;;;;17.65;3.67;;;21.70;90.60;;;;;;5065415;28;20049;-55
2023/09/04 08:24:59;;;;;;;15.02;3.92;;;21.70;90.60;;;;;;5047847;28;20068;-56
2023/09/04 08:27:24;;;;;;;19.45;3.42;;;21.70;90.70;;;;;;5064478;28;20680;-56
2023/09/04 08:29:51;;;;;;;22.63;3.92;;;21.70;90.70;;;;;;5026019;28;20476;-55
2023/09/04 08:32:16;;;;;;;23.48;4.50;;;21.70;90.70;;;;;;5047736;28;20051;-57
2023/09/04 08:34:42;;;;;;;21.02;3.38;;;21.70;90.80;;;;;;5047759;28;20033;-58
2023/09/04 08:37:07;;;;;;;17.48;3.70;;;21.70;90.80;;;;;;5065420;28;20045;-58
2023/09/04 08:39:33;;;;;;;15.38;3.20;;;21.80;90.70;;;;;;5065257;28;20029;-55
2023/09/04 08:41:58;;;;;;;18.73;4.50;;;21.70;90.80;;;;;;5047218;28;20037;-55
2023/09/04 08:47:52;;;;;;;26.15;3.70;;;21.80;90.90;;;;;;4973625;28;21006;-56
2023/09/04 08:50:19;;;;;;;14.73;3.42;;;21.70;90.90;;;;;;5027601;28;20033;-56
2023/09/04 08:52:45;;;;;;;24.13;4.50;;;21.70;90.80;;;;;;5062596;28;20029;-56
2023/09/04 08:55:10;;;;;;;19.23;4.07;;;21.70;90.80;;;;;;5062467;28;20487;-55
2023/09/04 08:57:36;;;;;;;24.70;3.40;;;21.80;90.90;;;;;;5044761;28;20106;-55
2023/09/04 09:00:02;;;;;;;17.50;4.30;;;21.80;90.90;;;;;;5064593;28;20445;-55
2023/09/04 09:02:28;;;;;;;11.90;2.97;;;21.80;90.90;;;;;;5029089;28;20041;-55
2023/09/04 09:04:54;;;;;;;23.48;3.13;;;21.80;90.90;;;;;;5032979;28;20060;-55
2023/09/04 09:07:23;;;;;;;14.30;3.20;;;21.80;90.90;;;;;;5045715;28;20105;-55
2023/09/04 09:09:50;;;;;;;11.52;3.30;;;21.80;90.90;;;;;;5066188;28;20041;-55
2023/09/04 09:12:15;;;;;;;7.70;2.75;;;21.90;90.90;;;;;;5049442;28;20056;-55
2023/09/04 09:14:41;;;;;;;38.63;6.03;;;21.90;90.90;;;;;;5067709;28;20033;-55
2023/09/04 09:17:08;;;;;;;22.92;5.10;;;21.90;90.90;;;;;;5048460;28;20060;-55
2023/09/04 09:19:36;;;;;;;19.15;4.13;;;21.90;90.90;;;;;;5067902;28;20060;-58
2023/09/04 09:22:18;;;;;;;23.15;3.92;;;21.90;91.00;;;;;;5047912;28;20033;-55
2023/09/04 09:24:54;;;;;;;28.65;4.15;;;22.00;90.90;;;;;;5050397;28;20519;-56
2023/09/04 09:27:21;;;;;;;26.90;5.30;;;22.00;90.90;;;;;;5064700;28;20045;-55
2023/09/04 09:29:47;;;;;;;32.05;4.97;;;22.00;90.90;;;;;;5065360;28;20048;-55
2023/09/04 09:32:14;;;;;;;36.63;5.57;;;22.00;90.80;;;;;;5049659;28;20041;-55
2023/09/04 09:34:40;;;;;;;33.20;5.65;;;22.10;90.80;;;;;;5050448;28;20091;-55
2023/09/04 09:37:07;;;;;;;28.30;4.95;;;22.10;90.80;;;;;;5066525;28;20041;-55
2023/09/04 09:39:33;;;;;;;32.72;5.32;;;22.10;90.90;;;;;;5065508;28;20041;-55
2023/09/04 09:41:59;;;;;;;37.67;5.60;;;22.10;90.90;;;;;;5032063;28;20045;-55
2023/09/04 09:44:30;;;;;;;35.63;5.88;;;22.20;90.90;;;;;;5033446;28;20076;-55
2023/09/04 09:46:55;;;;;;;34.95;5.28;;;22.20;90.80;;;;;;5048023;28;20033;-55
2023/09/04 09:49:21;;;;;;;40.20;6.00;;;22.20;90.70;;;;;;5029496;28;20059;-55
2023/09/04 09:51:47;;;;;;;37.40;5.68;;;22.30;90.70;;;;;;5060192;28;20029;-55
2023/09/04 09:54:13;;;;;;;39.72;6.35;;;22.30;90.60;;;;;;5048950;28;20032;-56
2023/09/04 09:56:39;;;;;;;37.25;6.10;;;22.30;90.70;;;;;;5047693;28;20054;-55
2023/09/04 09:59:10;;;;;;;54.15;8.15;;;22.40;90.60;;;;;;5030875;28;20084;-55
2023/09/04 10:01:41;;;;;;;50.17;8.48;;;22.40;90.60;;;;;;5029703;28;20052;-55
2023/09/04 10:04:07;;;;;;;35.33;7.18;;;22.40;90.60;;;;;;5065099;28;20100;-55
2023/09/04 10:06:34;;;;;;;51.65;7.40;;;22.40;90.50;;;;;;5026582;28;20059;-55
2023/09/04 10:09:00;;;;;;;55.15;7.75;;;22.50;90.40;;;;;;5030841;28;20040;-55
2023/09/04 10:11:25;;;;;;;68.80;9.30;;;22.50;90.30;;;;;;5014420;28;20458;-55
2023/09/04 10:14:16;;;;;;;45.75;8.75;;;22.50;90.30;;;;;;5045047;28;20037;-56
2023/09/04 10:16:52;;;;;;;54.00;8.02;;;22.50;90.30;;;;;;5064002;28;20033;-55
2023/09/04 10:19:17;;;;;;;64.32;9.80;;;22.60;90.40;;;;;;5056081;28;20033;-55
2023/09/04 10:21:49;;;;;;;58.35;8.80;;;22.70;90.30;;;;;;5046411;28;20079;-55
2023/09/04 10:31:03;;;;;;;53.65;8.88;;;22.90;90.20;;;;;;5062414;28;20045;-55
2023/09/04 10:33:28;;;;;;;49.65;8.57;;;22.90;90.10;;;;;;5064598;28;20057;-55
2023/09/04 10:35:54;;;;;;;53.42;7.72;;;23.00;90.00;;;;;;5065958;28;20068;-55
2023/09/04 10:38:20;;;;;;;44.42;7.63;;;23.10;90.00;;;;;;5048552;28;20025;-55
2023/09/04 10:40:46;;;;;;;55.50;8.30;;;23.00;89.90;;;;;;5014685;28;20045;-57
2023/09/04 10:43:11;;;;;;;53.90;7.85;;;23.10;89.80;;;;;;5025148;28;20604;-57
2023/09/04 10:45:38;;;;;;;52.35;7.40;;;23.20;89.80;;;;;;5030978;28;20497;-55
2023/09/04 10:48:04;;;;;;;61.42;8.70;;;23.10;89.70;;;;;;5030053;28;20413;-55
2023/09/04 10:50:37;;;;;;;50.30;8.13;;;23.20;89.80;;;;;;5030839;28;20454;-55
2023/09/04 10:53:07;;;;;;;72.30;10.75;;;23.20;89.60;;;;;;5062205;28;20087;-55
2023/09/04 10:55:37;;;;;;;68.75;9.25;;;23.30;89.50;;;;;;5032079;28;20026;-55
2023/09/04 10:58:06;;;;;;;52.70;8.00;;;23.30;89.20;;;;;;5048020;28;20037;-57
2023/09/04 11:00:39;;;;;;;49.67;8.65;;;23.30;89.00;;;;;;5063697;28;20051;-55
2023/09/04 11:03:22;;;;;;;35.88;7.53;;;23.30;88.90;;;;;;5043708;28;20104;-57
2023/09/04 11:06:05;;;;;;;40.00;6.80;;;23.30;88.70;;;;;;5046284;28;20052;-55
2023/09/04 11:08:32;;;;;;;43.88;6.97;;;23.30;88.40;;;;;;5063207;28;20043;-55
2023/09/04 11:11:03;;;;;;;45.80;7.68;;;23.40;88.20;;;;;;5031347;28;20071;-55
2023/09/04 11:13:29;;;;;;;38.42;6.30;;;23.40;87.40;;;;;;5030654;28;20365;-56
2023/09/04 11:15:55;;;;;;;40.53;7.28;;;23.50;86.80;;;;;;5048014;28;20083;-57
2023/09/04 11:18:21;;;;;;;44.13;8.98;;;23.60;86.30;;;;;;5031654;28;20029;-57
2023/09/04 11:20:47;;;;;;;39.92;7.85;;;23.60;86.20;;;;;;5045869;28;20045;-57
2023/09/04 11:23:12;;;;;;;59.35;8.57;;;23.70;85.70;;;;;;5031060;28;20063;-57
2023/09/04 11:25:38;;;;;;;73.43;9.98;;;23.70;85.50;;;;;;5045902;28;20037;-57
2023/09/04 11:28:06;;;;;;;46.97;8.13;;;23.80;85.90;;;;;;5064155;28;20028;-57
2023/09/04 11:30:31;;;;;;;74.25;9.80;;;23.80;85.10;;;;;;5031867;28;20118;-57
2023/09/04 11:32:59;;;;;;;42.30;7.70;;;23.90;85.00;;;;;;5029327;28;20032;-57
2023/09/04 11:35:25;;;;;;;63.72;8.90;;;24.00;84.30;;;;;;5046309;28;20048;-57
2023/09/04 11:37:50;;;;;;;55.83;7.88;;;24.00;83.90;;;;;;5047599;28;20029;-57
2023/09/04 11:40:16;;;;;;;45.75;7.65;;;24.00;83.40;;;;;;5046414;28;20132;-57
2023/09/04 11:42:41;;;;;;;47.42;8.13;;;24.10;83.30;;;;;;5047399;28;20079;-57
2023/09/04 11:45:07;;;;;;;37.33;6.40;;;24.10;82.70;;;;;;5065338;28;20051;-57
2023/09/04 11:47:33;;;;;;;40.95;6.97;;;24.20;82.50;;;;;;5048128;28;20029;-58
2023/09/04 11:49:59;;;;;;;50.30;7.25;;;24.30;82.20;;;;;;5029674;28;20132;-57
2023/09/04 11:52:26;;;;;;;29.88;5.97;;;24.30;81.70;;;;;;5064509;28;20029;-57
2023/09/04 11:54:52;;;;;;;30.48;5.38;;;24.40;81.40;;;;;;5065166;28;20041;-57
2023/09/04 11:57:17;;;;;;;33.65;5.57;;;24.40;81.10;;;;;;5050337;28;20033;-56
2023/09/04 11:59:43;;;;;;;26.05;5.38;;;24.50;80.90;;;;;;5025553;28;20036;-58
2023/09/04 12:02:09;;;;;;;33.05;6.15;;;24.60;80.60;;;;;;5046802;28;20105;-57
2023/09/04 12:04:34;;;;;;;23.40;4.80;;;24.60;80.40;;;;;;5046510;28;20037;-58
2023/09/04 12:07:01;;;;;;;34.22;5.13;;;24.60;80.10;;;;;;5044490;28;20077;-57
2023/09/04 12:09:27;;;;;;;25.98;5.13;;;24.80;79.90;;;;;;5063806;28;20170;-58
2023/09/04 12:11:53;;;;;;;30.00;4.88;;;24.80;80.50;;;;;;5046640;28;20123;-57
2023/09/04 12:14:19;;;;;;;39.17;6.43;;;24.80;79.70;;;;;;5028389;28;20041;-57
2023/09/04 12:16:45;;;;;;;32.08;5.82;;;24.90;79.60;;;;;;5043544;28;20063;-57
2023/09/04 12:19:11;;;;;;;27.95;5.20;;;24.90;79.30;;;;;;5045639;28;20086;-57
2023/09/04 12:21:37;;;;;;;21.35;4.38;;;25.00;79.60;;;;;;5029072;28;20052;-57
2023/09/04 12:24:10;;;;;;;20.67;4.10;;;25.10;78.70;;;;;;5063487;28;20025;-57
2023/09/04 12:26:35;;;;;;;21.38;4.38;;;25.10;78.40;;;;;;5046660;28;20041;-57
2023/09/04 12:29:02;;;;;;;15.05;4.28;;;25.10;78.20;;;;;;5025964;28;20531;-57
2023/09/04 12:31:28;;;;;;;23.23;4.32;;;25.20;78.10;;;;;;5044041;28;20508;-57
2023/09/04 12:33:53;;;;;;;17.33;4.15;;;25.30;77.60;;;;;;5027188;28;20056;-57
2023/09/04 12:36:21;;;;;;;16.35;3.60;;;25.30;77.40;;;;;;5048864;28;20025;-57
2023/09/04 12:38:47;;;;;;;28.88;4.65;;;25.40;77.30;;;;;;5069129;28;20104;-57
2023/09/04 12:41:12;;;;;;;12.20;3.90;;;25.50;77.10;;;;;;5068861;28;20041;-57
2023/09/04 12:43:38;;;;;;;23.83;3.53;;;25.50;77.20;;;;;;5050813;28;20036;-58
2023/09/04 12:46:03;;;;;;;32.88;4.95;;;25.50;76.80;;;;;;5068734;28;20049;-57
2023/09/04 12:48:29;;;;;;;14.27;3.38;;;25.60;76.60;;;;;;5068907;28;20109;-58
2023/09/04 12:50:54;;;;;;;15.88;3.78;;;25.60;76.40;;;;;;5034428;28;20419;-58
2023/09/04 12:53:20;;;;;;;21.80;4.45;;;25.70;76.20;;;;;;5048665;28;20033;-57
2023/09/04 12:55:46;;;;;;;16.00;3.80;;;25.70;76.40;;;;;;5050324;28;20065;-57
2023/09/04 12:58:13;;;;;;;23.40;4.47;;;25.80;76.30;;;;;;5068226;28;20090;-58
2023/09/04 13:00:40;;;;;;;22.30;3.65;;;25.80;75.90;;;;;;5050144;28;20037;-57
2023/09/04 13:03:06;;;;;;;22.67;4.20;;;25.90;76.00;;;;;;5067009;28;20041;-57
2023/09/04 13:05:32;;;;;;;24.42;4.75;;;26.00;75.50;;;;;;5048884;28;20128;-57
2023/09/04 13:07:58;;;;;;;21.85;3.88;;;26.00;75.30;;;;;;5034016;28;20037;-57
2023/09/04 13:10:23;;;;;;;25.08;4.50;;;26.10;75.10;;;;;;5067564;28;20124;-57
2023/09/04 13:12:49;;;;;;;26.70;4.65;;;26.00;74.70;;;;;;5066391;28;20045;-58
2023/09/04 13:15:15;;;;;;;21.75;4.47;;;26.20;74.90;;;;;;5049411;28;20037;-54
2023/09/04 13:17:43;;;;;;;24.80;4.90;;;26.20;74.70;;;;;;5046950;28;20037;-55
2023/09/04 13:20:12;;;;;;;35.53;5.20;;;26.30;74.50;;;;;;5068140;28;20492;-54
2023/09/04 13:22:42;;;;;;;34.22;5.00;;;26.30;74.40;;;;;;5049697;28;20032;-55
2023/09/04 13:25:08;;;;;;;25.25;4.72;;;26.40;74.10;;;;;;5050485;28;20449;-57
2023/09/04 13:27:36;;;;;;;33.28;4.60;;;26.50;74.10;;;;;;5050115;28;20037;-57
2023/09/04 13:30:02;;;;;;;29.27;4.20;;;26.50;73.70;;;;;;5049705;28;20124;-57
2023/09/04 13:32:28;;;;;;;30.10;5.13;;;26.50;73.90;;;;;;5033663;28;20048;-57
2023/09/04 13:34:53;;;;;;;37.20;5.00;;;26.60;73.70;;;;;;5065210;28;20033;-57
2023/09/04 13:37:19;;;;;;;38.15;5.63;;;26.70;73.30;;;;;;5033857;28;20033;-58
2023/09/04 13:39:45;;;;;;;31.92;5.70;;;26.70;72.90;;;;;;5068021;28;20432;-57
2023/09/04 13:42:10;;;;;;;28.55;4.55;;;26.80;73.10;;;;;;5068011;28;20029;-57
2023/09/04 13:44:36;;;;;;;22.95;4.68;;;26.80;72.40;;;;;;5067183;28;20044;-57
2023/09/04 13:47:03;;;;;;;23.70;4.75;;;26.90;72.90;;;;;;5067854;28;20051;-58
2023/09/04 13:49:29;;;;;;;30.10;5.03;;;27.00;72.60;;;;;;5049796;28;20041;-57
2023/09/04 13:51:54;;;;;;;38.75;5.22;;;27.00;72.70;;;;;;5067443;28;20075;-55
2023/09/04 13:54:20;;;;;;;33.65;5.05;;;27.10;72.50;;;;;;5029865;28;20048;-57
2023/09/04 13:56:46;;;;;;;46.63;5.53;;;27.10;72.30;;;;;;5059541;28;20025;-57
2023/09/04 13:59:11;;;;;;;35.80;5.43;;;27.20;72.00;;;;;;5062360;28;20036;-57
2023/09/04 14:01:37;;;;;;;48.97;6.95;;;27.30;72.10;;;;;;5066715;28;20059;-57
2023/09/04 14:04:03;;;;;;;101.03;10.82;;;27.40;71.70;;;;;;5047620;28;20467;-58